createdAt,value
2023-01-11T00:00:59.415Z,56.05
2023-01-11T00:06:27.624Z,57.00
2023-01-11T00:09:15.324Z,56.51
2023-01-11T00:12:01.199Z,56.69
2023-01-11T00:14:47.017Z,57.38
2023-01-11T00:17:32.801Z,57.79
2023-01-11T00:20:18.598Z,58.36
2023-01-11T00:23:04.538Z,58.65
2023-01-11T00:25:50.377Z,57.73
2023-01-11T00:28:36.378Z,59.13
2023-01-11T00:31:22.244Z,59.08
2023-01-11T00:34:08.126Z,59.15
2023-01-11T00:36:54.093Z,59.19
2023-01-11T00:39:39.841Z,59.42
2023-01-11T00:42:25.773Z,58.79
2023-01-11T00:45:11.747Z,58.13
2023-01-11T00:47:57.484Z,59.19
2023-01-11T00:50:43.487Z,59.00
2023-01-11T00:53:29.387Z,58.88
2023-01-11T00:56:15.191Z,59.90
2023-01-11T00:59:01.100Z,59.60
2023-01-11T01:01:46.895Z,60.64
2023-01-11T01:04:32.847Z,60.60
2023-01-11T01:07:18.674Z,60.12
2023-01-11T01:10:04.702Z,60.91
2023-01-11T01:12:50.644Z,60.41
2023-01-11T01:15:36.525Z,60.32
2023-01-11T01:18:22.595Z,60.05
2023-01-11T01:21:08.449Z,60.31
2023-01-11T01:23:54.085Z,60.25
2023-01-11T01:26:40.130Z,59.68
2023-01-11T01:29:26.079Z,60.44
2023-01-11T01:32:12.130Z,60.12
2023-01-11T01:34:58.000Z,60.99
2023-01-11T01:37:43.757Z,60.98
2023-01-11T01:40:29.657Z,60.97
2023-01-11T01:43:15.443Z,59.57
2023-01-11T01:46:01.328Z,59.33
2023-01-11T01:48:47.301Z,59.63
2023-01-11T01:51:33.111Z,60.08
2023-01-11T01:54:18.909Z,59.82
2023-01-11T01:57:04.842Z,58.04
2023-01-11T01:59:50.651Z,58.11
2023-01-11T02:02:36.472Z,57.85
2023-01-11T02:05:22.455Z,57.79
2023-01-11T02:08:08.298Z,58.25
2023-01-11T02:10:54.292Z,57.91
2023-01-11T02:13:40.046Z,57.21
2023-01-11T02:16:25.999Z,57.98
2023-01-11T02:19:12.293Z,57.14
2023-01-11T02:21:58.152Z,57.17
2023-01-11T02:24:44.070Z,57.96
2023-01-11T02:27:29.990Z,58.02
2023-01-11T02:30:15.780Z,58.27
2023-01-11T02:33:01.659Z,59.44
2023-01-11T02:35:47.430Z,59.36
2023-01-11T02:38:33.357Z,58.89
2023-01-11T02:41:19.177Z,59.83
2023-01-11T02:44:04.966Z,60.36
2023-01-11T02:46:50.871Z,60.60
2023-01-11T02:49:36.799Z,60.97
2023-01-11T02:52:22.717Z,61.02
2023-01-11T02:55:08.658Z,60.60
2023-01-11T02:57:54.618Z,61.31
2023-01-11T03:00:40.478Z,60.48
2023-01-11T03:03:26.499Z,61.27
2023-01-11T03:06:12.324Z,60.28
2023-01-11T03:08:58.094Z,59.74
2023-01-11T03:11:43.902Z,59.69
2023-01-11T03:14:29.772Z,60.51
2023-01-11T03:17:15.603Z,60.38
2023-01-11T03:20:02.501Z,60.68
2023-01-11T03:22:48.377Z,58.58
2023-01-11T03:25:34.266Z,58.54
2023-01-11T03:28:20.107Z,58.92
2023-01-11T03:31:06.099Z,59.31
2023-01-11T03:33:51.970Z,59.56
2023-01-11T03:36:37.931Z,59.11
2023-01-11T03:39:23.719Z,60.37
2023-01-11T03:42:09.453Z,61.39
2023-01-11T03:44:55.344Z,61.08
2023-01-11T03:47:41.203Z,60.72
2023-01-11T03:50:27.110Z,60.85
2023-01-11T03:53:13.049Z,62.41
2023-01-11T03:55:58.877Z,62.54
2023-01-11T03:58:44.697Z,62.09
2023-01-11T04:01:30.660Z,63.45
2023-01-11T04:04:16.573Z,64.14
2023-01-11T04:07:02.363Z,63.15
2023-01-11T04:09:48.140Z,63.31
2023-01-11T04:12:34.076Z,62.99
2023-01-11T04:15:19.870Z,62.88
2023-01-11T04:18:05.661Z,63.35
2023-01-11T04:20:51.482Z,63.35
2023-01-11T04:23:37.248Z,62.25
2023-01-11T04:26:23.067Z,61.89
2023-01-11T04:29:08.870Z,61.42
2023-01-11T04:31:54.645Z,60.15
2023-01-11T04:34:40.643Z,60.21
2023-01-11T04:37:26.605Z,59.44
2023-01-11T04:40:12.469Z,60.76
2023-01-11T04:42:58.254Z,59.52
2023-01-11T04:45:44.100Z,58.90
2023-01-11T04:48:30.065Z,58.95
2023-01-11T04:51:18.054Z,60.01
2023-01-11T04:54:03.891Z,60.46
2023-01-11T04:56:49.793Z,60.45
2023-01-11T04:59:35.696Z,60.28
2023-01-11T05:02:21.422Z,59.66
2023-01-11T05:05:07.369Z,60.93
2023-01-11T05:07:53.191Z,60.04
2023-01-11T05:10:39.063Z,59.39
2023-01-11T05:13:24.972Z,58.09
2023-01-11T05:16:10.637Z,58.83
2023-01-11T05:18:56.516Z,59.15
2023-01-11T05:21:42.443Z,59.01
2023-01-11T05:24:28.252Z,59.66
2023-01-11T05:27:14.269Z,60.00
2023-01-11T05:30:00.047Z,59.34
2023-01-11T05:32:45.933Z,59.03
2023-01-11T05:35:31.866Z,60.14
2023-01-11T05:38:17.772Z,59.58
2023-01-11T05:41:03.577Z,59.75
2023-01-11T05:43:49.465Z,60.41
2023-01-11T05:46:37.202Z,60.23
2023-01-11T05:49:23.007Z,59.45
2023-01-11T05:52:08.739Z,59.03
2023-01-11T05:54:54.545Z,58.60
2023-01-11T05:57:40.492Z,57.64
2023-01-11T06:00:26.252Z,56.48
2023-01-11T06:03:12.125Z,56.36
2023-01-11T06:05:57.914Z,58.29
2023-01-11T06:08:43.744Z,59.27
2023-01-11T06:11:31.559Z,59.03
2023-01-11T06:14:17.377Z,60.14
2023-01-11T06:17:03.200Z,60.37
2023-01-11T06:19:49.036Z,59.97
2023-01-11T06:22:34.853Z,58.88
2023-01-11T06:25:20.821Z,57.94
2023-01-11T06:28:06.539Z,57.81
2023-01-11T06:30:52.522Z,58.48
2023-01-11T06:33:38.598Z,57.53
2023-01-11T06:36:24.320Z,58.06
2023-01-11T06:39:10.274Z,57.47
2023-01-11T06:41:56.223Z,56.62
2023-01-11T06:44:42.179Z,56.31
2023-01-11T06:47:28.151Z,56.26
2023-01-11T06:50:14.033Z,57.02
2023-01-11T06:52:59.889Z,57.32
2023-01-11T06:55:45.772Z,58.23
2023-01-11T06:58:31.450Z,58.15
2023-01-11T07:01:17.388Z,58.53
2023-01-11T07:04:03.653Z,58.65
2023-01-11T07:06:49.533Z,59.10
2023-01-11T07:09:35.523Z,59.50
2023-01-11T07:12:21.379Z,60.85
2023-01-11T07:15:07.335Z,60.17
2023-01-11T07:17:53.323Z,61.17
2023-01-11T07:20:39.291Z,59.78
2023-01-11T07:23:25.094Z,60.90
2023-01-11T07:26:10.926Z,61.56
2023-01-11T07:28:56.791Z,61.55
2023-01-11T07:31:42.724Z,62.93
2023-01-11T07:34:28.633Z,63.02
2023-01-11T07:37:28.547Z,62.53
2023-01-11T07:40:15.260Z,62.39
2023-01-11T07:43:01.220Z,62.41
2023-01-11T07:45:47.314Z,61.81
2023-01-11T07:48:33.372Z,62.43
2023-01-11T07:51:19.201Z,62.91
2023-01-11T07:54:05.015Z,62.51
2023-01-11T07:56:50.817Z,62.73
2023-01-11T07:59:36.715Z,63.11
2023-01-11T08:02:22.836Z,62.47
2023-01-11T08:05:09.009Z,63.29
2023-01-11T08:07:54.955Z,63.35
2023-01-11T08:10:42.191Z,62.59
2023-01-11T08:13:30.538Z,62.04
2023-01-11T08:16:16.562Z,62.05
2023-01-11T08:19:02.455Z,61.10
2023-01-11T08:21:48.230Z,60.59
2023-01-11T08:24:34.221Z,59.78
2023-01-11T08:27:19.966Z,58.68
2023-01-11T08:30:05.894Z,58.49
2023-01-11T08:32:51.905Z,58.64
2023-01-11T08:35:37.708Z,58.11
2023-01-11T08:38:23.694Z,58.26
2023-01-11T08:41:09.492Z,58.02
2023-01-11T08:43:55.256Z,57.87
2023-01-11T08:46:41.223Z,58.28
2023-01-11T08:49:27.028Z,59.25
2023-01-11T08:52:12.894Z,59.93
2023-01-11T08:54:58.760Z,60.38
2023-01-11T08:57:44.546Z,60.77
2023-01-11T09:00:30.574Z,60.67
2023-01-11T09:03:16.392Z,62.17
2023-01-11T09:06:02.534Z,62.78
2023-01-11T09:08:48.384Z,62.82
2023-01-11T09:11:34.229Z,62.00
2023-01-11T09:14:20.041Z,63.08
2023-01-11T09:17:05.845Z,62.36
2023-01-11T09:19:51.721Z,62.50
2023-01-11T09:22:37.643Z,62.70
2023-01-11T09:25:23.578Z,61.58
2023-01-11T09:28:09.469Z,61.91
2023-01-11T09:30:55.476Z,61.94
2023-01-11T09:33:41.404Z,61.88
2023-01-11T09:36:27.453Z,61.93
2023-01-11T09:39:13.376Z,60.85
2023-01-11T09:41:59.287Z,60.62
2023-01-11T09:44:45.012Z,60.70
2023-01-11T09:47:30.810Z,60.81
2023-01-11T09:50:18.730Z,61.79
2023-01-11T09:53:04.671Z,62.95
2023-01-11T09:55:50.429Z,61.17
2023-01-11T09:58:36.434Z,60.46
2023-01-11T10:01:22.452Z,60.15
2023-01-11T10:04:08.494Z,59.27
2023-01-11T10:06:54.710Z,58.31
2023-01-11T10:18:26.399Z,58.97
2023-01-11T10:19:25.659Z,60.20
2023-01-11T10:22:04.748Z,60.21
2023-01-11T10:24:50.684Z,60.35
2023-01-11T10:27:36.461Z,59.35
2023-01-11T10:30:22.414Z,60.54
2023-01-11T10:33:08.254Z,61.44
2023-01-11T10:35:54.176Z,61.95
2023-01-11T10:38:39.928Z,62.58
2023-01-11T10:41:25.788Z,62.84
2023-01-11T10:44:11.781Z,63.39
2023-01-11T10:46:57.672Z,63.92
2023-01-11T10:49:43.420Z,63.94
2023-01-11T10:52:29.262Z,62.76
2023-01-11T10:55:15.169Z,62.30
2023-01-11T10:58:02.736Z,62.69
2023-01-11T11:00:49.607Z,63.37
2023-01-11T11:03:35.468Z,63.77
2023-01-11T11:06:21.296Z,62.30
2023-01-11T11:09:07.254Z,63.04
2023-01-11T11:11:53.187Z,62.03
2023-01-11T11:14:39.153Z,62.51
2023-01-11T11:17:25.568Z,63.06
2023-01-11T11:20:11.372Z,63.21
2023-01-11T11:22:57.345Z,64.67
2023-01-11T11:25:43.515Z,64.72
2023-01-11T11:28:29.701Z,64.47
2023-01-11T11:31:15.778Z,63.58
2023-01-11T11:34:04.056Z,63.06
2023-01-11T11:36:50.050Z,65.36
2023-01-11T11:39:35.952Z,65.21
2023-01-11T11:42:21.745Z,66.26
2023-01-11T11:45:07.719Z,64.62
2023-01-11T11:47:53.716Z,64.49
2023-01-11T11:50:45.197Z,65.14
2023-01-11T11:53:31.429Z,65.14
2023-01-11T11:56:17.368Z,65.71
2023-01-11T11:59:03.132Z,67.12
2023-01-11T12:01:49.077Z,67.94
2023-01-11T12:04:35.005Z,67.02
2023-01-11T12:07:20.798Z,67.90
2023-01-11T12:10:06.683Z,68.36
2023-01-11T12:12:52.651Z,68.35
2023-01-11T12:15:38.453Z,70.26
2023-01-11T12:18:24.404Z,70.13
2023-01-11T12:21:10.182Z,70.94
2023-01-11T12:23:56.069Z,70.86
2023-01-11T12:26:42.173Z,72.22
2023-01-11T12:29:28.457Z,71.68
2023-01-11T12:32:14.589Z,70.84
2023-01-11T12:35:00.352Z,71.69
2023-01-11T12:37:46.193Z,73.88
2023-01-11T12:40:32.035Z,71.37
2023-01-11T12:43:17.897Z,70.16
2023-01-11T12:46:03.801Z,69.05
2023-01-11T12:48:49.815Z,69.49
2023-01-11T12:51:35.727Z,71.68
2023-01-11T12:54:21.606Z,72.08
2023-01-11T12:57:07.444Z,72.50
2023-01-11T12:59:53.382Z,72.74
2023-01-11T13:02:39.347Z,74.91
2023-01-11T13:05:25.203Z,74.88
2023-01-11T13:08:11.064Z,73.46
2023-01-11T13:10:57.163Z,72.92
2023-01-11T13:13:43.254Z,73.13
2023-01-11T13:16:29.198Z,73.53
2023-01-11T13:19:15.359Z,73.60
2023-01-11T13:22:01.275Z,72.09
2023-01-11T13:24:47.325Z,72.17
2023-01-11T13:27:33.191Z,69.97
2023-01-11T13:30:19.071Z,70.26
2023-01-11T13:33:04.952Z,71.11
2023-01-11T13:35:50.804Z,72.19
2023-01-11T13:38:36.740Z,73.74
2023-01-11T13:41:24.584Z,74.28
2023-01-11T13:44:10.458Z,73.92
2023-01-11T13:46:56.302Z,74.01
2023-01-11T13:49:42.202Z,74.21
2023-01-11T13:52:28.191Z,73.74
2023-01-11T13:55:20.810Z,73.07
2023-01-11T13:58:12.647Z,73.42
2023-01-11T14:00:58.637Z,71.90
2023-01-11T14:03:44.538Z,71.12
2023-01-11T14:06:30.580Z,71.90
2023-01-11T14:09:16.470Z,71.95
2023-01-11T14:12:02.308Z,70.90
2023-01-11T14:14:48.204Z,70.04
2023-01-11T14:17:34.136Z,71.47
2023-01-11T14:20:20.118Z,72.37
2023-01-11T14:23:06.198Z,73.68
2023-01-11T14:25:52.065Z,74.08
2023-01-11T14:28:37.976Z,78.13
2023-01-11T14:31:23.870Z,76.92
2023-01-11T14:34:09.869Z,75.81
2023-01-11T14:36:55.776Z,74.55
2023-01-11T14:39:41.623Z,74.08
2023-01-11T14:42:34.956Z,74.31
2023-01-11T14:45:21.357Z,74.00
2023-01-11T14:48:07.338Z,73.01
2023-01-11T14:50:52.997Z,72.65
2023-01-11T14:53:38.968Z,71.34
2023-01-11T14:56:24.897Z,71.47
2023-01-11T14:59:10.745Z,71.84
2023-01-11T15:01:56.669Z,71.24
2023-01-11T15:04:42.445Z,71.53
2023-01-11T15:07:28.342Z,71.04
2023-01-11T15:10:14.255Z,70.88
2023-01-11T15:13:00.077Z,72.11
2023-01-11T15:15:46.022Z,71.27
2023-01-11T15:18:31.919Z,71.14
2023-01-11T15:21:17.758Z,71.38
2023-01-11T15:24:03.885Z,71.80
2023-01-11T15:26:51.921Z,73.06
2023-01-11T15:29:38.109Z,71.92
2023-01-11T15:32:24.141Z,70.77
2023-01-11T15:35:09.921Z,69.84
2023-01-11T15:37:55.939Z,69.29
2023-01-11T15:40:42.025Z,68.30
2023-01-11T15:43:28.017Z,67.46
2023-01-11T15:46:13.896Z,67.24
2023-01-11T15:48:59.811Z,67.04
2023-01-11T15:51:45.572Z,68.23
2023-01-11T15:54:31.492Z,67.27
2023-01-11T15:57:17.385Z,68.96
2023-01-11T16:00:03.331Z,68.01
2023-01-11T16:02:49.343Z,67.34
2023-01-11T16:05:35.162Z,68.01
2023-01-11T16:08:21.087Z,67.70
2023-01-11T16:11:06.924Z,67.48
2023-01-11T16:13:52.778Z,66.36
2023-01-11T16:16:38.657Z,66.09
2023-01-11T16:19:24.469Z,65.98
2023-01-11T16:22:10.542Z,66.21
2023-01-11T16:24:56.456Z,66.35
2023-01-11T16:27:42.427Z,66.91
2023-01-11T16:30:28.320Z,66.48
2023-01-11T16:33:14.083Z,66.61
2023-01-11T16:35:59.943Z,66.75
2023-01-11T16:38:45.813Z,67.04
2023-01-11T16:41:31.695Z,68.43
2023-01-11T16:44:17.811Z,67.11
2023-01-11T16:47:03.515Z,66.58
2023-01-11T16:49:49.504Z,66.03
2023-01-11T16:52:35.352Z,65.23
2023-01-11T16:55:21.310Z,65.09
2023-01-11T16:58:07.358Z,64.04
2023-01-11T17:00:53.332Z,64.38
2023-01-11T17:03:39.249Z,65.71
2023-01-11T17:06:25.253Z,65.98
2023-01-11T17:09:16.228Z,66.61
2023-01-11T17:12:05.340Z,65.75
2023-01-11T17:14:51.175Z,66.86
2023-01-11T17:17:37.200Z,66.35
2023-01-11T17:20:23.272Z,66.49
2023-01-11T17:23:09.202Z,67.92
2023-01-11T17:25:55.165Z,67.10
2023-01-11T17:28:40.900Z,66.92
2023-01-11T17:31:26.928Z,66.35
2023-01-11T17:34:12.829Z,67.90
2023-01-11T17:36:58.660Z,67.32
2023-01-11T17:39:44.648Z,66.04
2023-01-11T17:42:30.477Z,65.86
2023-01-11T17:45:16.521Z,65.17
2023-01-11T17:48:02.492Z,65.06
2023-01-11T17:50:48.275Z,64.87
2023-01-11T17:53:34.179Z,65.88
2023-01-11T17:56:19.943Z,65.14
2023-01-11T17:59:05.845Z,65.60
2023-01-11T18:01:51.669Z,65.08
2023-01-11T18:04:37.453Z,66.36
2023-01-11T18:07:23.315Z,66.85
2023-01-11T18:10:09.249Z,68.05
2023-01-11T18:12:55.049Z,67.99
2023-01-11T18:15:40.976Z,67.32
2023-01-11T18:18:26.667Z,65.95
2023-01-11T18:21:14.555Z,67.20
2023-01-11T18:24:00.465Z,66.19
2023-01-11T18:26:46.279Z,65.14
2023-01-11T18:29:32.179Z,65.71
2023-01-11T18:32:18.095Z,65.84
2023-01-11T18:35:03.945Z,64.33
2023-01-11T18:37:49.757Z,64.60
2023-01-11T18:40:35.650Z,63.11
2023-01-11T18:43:21.533Z,61.88
2023-01-11T18:46:07.691Z,62.08
2023-01-11T18:48:55.558Z,62.06
2023-01-11T18:51:41.390Z,62.88
2023-01-11T18:54:27.253Z,63.34
2023-01-11T18:57:13.440Z,63.71
2023-01-11T18:59:59.385Z,65.40
2023-01-11T19:02:45.392Z,64.88
2023-01-11T19:05:31.202Z,63.68
2023-01-11T19:08:17.196Z,63.98
2023-01-11T19:11:03.193Z,65.80
2023-01-11T19:13:49.029Z,65.41
2023-01-11T19:16:34.888Z,65.27
2023-01-11T19:19:20.693Z,65.74
2023-01-11T19:22:06.570Z,65.77
2023-01-11T19:24:52.484Z,66.11
2023-01-11T19:27:38.273Z,65.65
2023-01-11T19:30:24.150Z,66.82
2023-01-11T19:33:09.866Z,65.96
2023-01-11T19:35:55.787Z,66.24
2023-01-11T19:38:41.660Z,66.01
2023-01-11T19:41:27.450Z,66.09
2023-01-11T19:44:13.475Z,65.71
2023-01-11T19:47:10.302Z,65.49
2023-01-11T19:49:57.275Z,66.20
2023-01-11T19:52:43.128Z,67.35
2023-01-11T19:55:28.974Z,65.50
2023-01-11T19:58:14.849Z,64.89
2023-01-11T20:01:00.573Z,64.58
2023-01-11T20:03:46.391Z,64.58
2023-01-11T20:06:32.324Z,63.79
2023-01-11T20:09:18.012Z,63.90
2023-01-11T20:12:03.935Z,63.23
2023-01-11T20:14:49.619Z,63.20
2023-01-11T20:17:35.605Z,62.81
2023-01-11T20:20:21.510Z,64.51
2023-01-11T20:23:07.414Z,67.47
2023-01-11T20:25:53.279Z,67.21
2023-01-11T20:28:39.033Z,67.96
2023-01-11T20:31:24.929Z,69.17
2023-01-11T20:34:10.888Z,69.79
2023-01-11T20:36:56.764Z,70.27
2023-01-11T20:39:42.681Z,69.55
2023-01-11T20:42:29.571Z,69.55
2023-01-11T20:45:15.564Z,69.26
2023-01-11T20:48:01.522Z,68.60
2023-01-11T20:50:47.289Z,69.53
2023-01-11T20:53:33.329Z,69.46
2023-01-11T20:56:19.350Z,68.43
2023-01-11T20:59:07.294Z,67.13
2023-01-11T21:01:53.234Z,67.41
2023-01-11T21:04:39.191Z,68.54
2023-01-11T21:07:24.930Z,67.82
2023-01-11T21:10:10.953Z,68.77
2023-01-11T21:12:56.919Z,70.99
2023-01-11T21:15:42.881Z,71.94
2023-01-11T21:18:28.846Z,71.04
2023-01-11T21:21:14.680Z,70.89
2023-01-11T21:24:00.692Z,69.63
2023-01-11T21:26:46.620Z,69.01
2023-01-11T21:29:32.411Z,69.21
2023-01-11T21:32:18.409Z,68.93
2023-01-11T21:35:04.352Z,68.05
2023-01-11T21:37:50.299Z,66.43
2023-01-11T21:40:36.161Z,66.62
2023-01-11T21:43:21.922Z,65.58
2023-01-11T21:46:07.783Z,65.06
2023-01-11T21:48:53.754Z,65.09
2023-01-11T21:51:39.539Z,65.54
2023-01-11T21:54:25.560Z,65.62
2023-01-11T21:57:11.438Z,65.37
2023-01-11T21:59:57.289Z,64.71
2023-01-11T22:02:43.254Z,64.32
2023-01-11T22:05:29.053Z,64.32
2023-01-11T22:08:15.004Z,64.42
2023-01-11T22:11:02.916Z,65.29
2023-01-11T22:13:48.808Z,64.37
2023-01-11T22:16:34.729Z,64.90
2023-01-11T22:19:20.707Z,65.42
2023-01-11T22:22:06.544Z,66.20
2023-01-11T22:24:52.522Z,66.80
2023-01-11T22:27:38.373Z,65.29
2023-01-11T22:30:24.262Z,66.36
2023-01-11T22:33:10.379Z,64.93
2023-01-11T22:35:58.122Z,64.40
2023-01-11T22:38:44.147Z,64.47
2023-01-11T22:41:30.018Z,66.25
2023-01-11T22:44:15.717Z,64.85
2023-01-11T22:47:01.619Z,64.71
2023-01-11T22:49:47.401Z,64.18
2023-01-11T22:52:33.322Z,64.35
2023-01-11T22:55:19.336Z,63.25
2023-01-11T22:58:05.267Z,63.67
2023-01-11T23:00:51.215Z,62.69
2023-01-11T23:03:37.104Z,62.13
2023-01-11T23:06:23.064Z,62.39
2023-01-11T23:09:09.046Z,61.40
2023-01-11T23:11:54.913Z,61.37
2023-01-11T23:14:40.794Z,61.93
2023-01-11T23:17:26.714Z,62.62
2023-01-11T23:20:12.521Z,61.99
2023-01-11T23:22:58.449Z,61.22
2023-01-11T23:25:44.335Z,62.04
2023-01-11T23:28:30.080Z,61.67
2023-01-11T23:31:15.910Z,61.81
2023-01-11T23:34:01.634Z,63.64
2023-01-11T23:36:47.528Z,64.82
2023-01-11T23:39:33.386Z,64.26
2023-01-11T23:42:19.246Z,65.44
2023-01-11T23:45:05.138Z,65.50
2023-01-11T23:47:51.160Z,66.19
2023-01-11T23:50:36.955Z,65.10
2023-01-11T23:53:23.267Z,63.70
2023-01-11T23:56:09.109Z,63.30
2023-01-11T23:58:54.917Z,63.02
